Time;durP1;ratioP1;P1;durP2;ratioP2;P2;SDS_P1;SDS_P2;PMS_P1;PMS_P2;Temp;Humidity;BMP_temperature;BMP_pressure;BME280_temperature;BME280_humidity;BME280_pressure;Samples;Min_cycle;Max_cycle;Signal;HPM_P1;HPM_P2
2023/03/15 00:01:45;;;;;;;2.88;0.75;;;5.00;99.90;;;;;;5024315;28;20053;-56
2023/03/15 00:04:12;;;;;;;3.83;0.98;;;5.00;99.90;;;;;;5014958;28;20068;-56
2023/03/15 00:06:39;;;;;;;4.78;1.20;;;5.00;99.90;;;;;;5024934;28;20095;-57
2023/03/15 00:09:06;;;;;;;4.25;2.47;;;5.00;99.90;;;;;;5018830;28;20486;-55
2023/03/15 00:11:33;;;;;;;2.13;0.88;;;4.90;99.90;;;;;;5011240;28;20049;-55
2023/03/15 00:14:01;;;;;;;7.15;1.13;;;4.90;99.90;;;;;;5015532;28;20060;-55
2023/03/15 00:16:28;;;;;;;8.85;1.48;;;4.90;99.90;;;;;;5013355;28;20061;-55
2023/03/15 00:18:55;;;;;;;8.40;1.20;;;4.80;99.90;;;;;;4999345;28;20130;-55
2023/03/15 00:21:22;;;;;;;8.82;1.05;;;4.80;99.90;;;;;;5019025;28;20558;-56
2023/03/15 00:23:48;;;;;;;4.82;2.17;;;4.90;99.90;;;;;;5005056;28;20120;-55
2023/03/15 00:26:15;;;;;;;4.70;1.05;;;4.80;99.90;;;;;;5016795;28;20132;-56
2023/03/15 00:28:42;;;;;;;8.00;1.35;;;4.80;99.90;;;;;;5022794;28;20053;-58
2023/03/15 00:31:22;;;;;;;14.02;1.27;;;4.80;99.90;;;;;;5016392;28;20129;-52
2023/03/15 00:33:52;;;;;;;5.18;1.23;;;4.90;99.90;;;;;;5024249;28;20054;-55
2023/03/15 00:36:22;;;;;;;4.35;1.27;;;4.90;99.90;;;;;;4999548;28;20046;-57
2023/03/15 00:38:49;;;;;;;4.05;1.45;;;4.90;99.90;;;;;;5023879;28;20458;-58
2023/03/15 00:41:17;;;;;;;4.20;1.70;;;4.90;99.90;;;;;;5017794;28;20176;-55
2023/03/15 00:43:44;;;;;;;5.72;1.50;;;4.80;99.90;;;;;;5024980;28;20129;-55
2023/03/15 00:46:11;;;;;;;10.50;1.98;;;4.80;99.90;;;;;;5014686;28;20042;-56
2023/03/15 00:48:37;;;;;;;2.35;1.40;;;4.70;99.90;;;;;;5024113;28;20064;-56
2023/03/15 00:51:12;;;;;;;2.42;1.00;;;4.80;99.90;;;;;;5014688;28;20047;-56
2023/03/15 00:53:41;;;;;;;6.60;1.10;;;4.70;99.90;;;;;;5025317;28;20077;-54
2023/03/15 00:56:13;;;;;;;5.28;1.13;;;4.60;99.90;;;;;;5014845;28;20046;-55
2023/03/15 00:58:39;;;;;;;3.30;1.17;;;4.60;99.90;;;;;;5007554;28;20085;-56
2023/03/15 01:01:08;;;;;;;7.63;1.77;;;4.60;99.90;;;;;;5018766;28;20064;-54
2023/03/15 01:03:35;;;;;;;3.97;1.45;;;4.60;99.90;;;;;;5009298;28;20072;-55
2023/03/15 01:06:22;;;;;;;17.50;1.55;;;4.50;99.90;;;;;;4999833;28;20099;-56
2023/03/15 01:08:50;;;;;;;6.97;1.23;;;4.50;99.90;;;;;;5026830;28;20041;-56
2023/03/15 01:11:20;;;;;;;9.30;1.40;;;4.40;99.90;;;;;;5017358;28;20051;-56
2023/03/15 01:13:46;;;;;;;6.60;1.70;;;4.50;99.90;;;;;;4992885;28;20049;-54
2023/03/15 01:16:13;;;;;;;8.15;1.88;;;4.40;99.90;;;;;;5016057;28;20107;-56
2023/03/15 01:18:41;;;;;;;6.53;2.00;;;4.30;99.90;;;;;;5015878;28;20052;-57
2023/03/15 01:21:09;;;;;;;5.95;1.42;;;4.30;99.90;;;;;;5017958;28;20129;-56
2023/03/15 01:23:36;;;;;;;4.22;1.30;;;4.30;99.90;;;;;;5017622;28;20160;-55
2023/03/15 01:26:03;;;;;;;4.65;1.50;;;4.20;99.90;;;;;;5015645;28;20046;-54
2023/03/15 01:28:30;;;;;;;7.75;2.90;;;4.20;99.90;;;;;;5019588;28;20493;-55
2023/03/15 01:30:57;;;;;;;3.53;1.38;;;4.20;99.90;;;;;;4653720;28;9999910;-56
2023/03/15 01:33:25;;;;;;;4.20;1.80;;;4.20;99.90;;;;;;5015621;28;20104;-56
2023/03/15 01:35:59;;;;;;;4.25;1.17;;;4.10;99.90;;;;;;5025342;28;20041;-57
2023/03/15 01:38:26;;;;;;;7.88;1.45;;;4.20;99.90;;;;;;5019012;28;20073;-56
2023/03/15 01:40:53;;;;;;;2.47;1.08;;;4.00;99.90;;;;;;4997557;28;20159;-57
2023/03/15 01:43:21;;;;;;;12.23;1.88;;;4.00;99.90;;;;;;5021299;28;20050;-57
2023/03/15 01:46:00;;;;;;;6.53;2.55;;;3.90;99.90;;;;;;4994884;28;20116;-60
2023/03/15 01:48:34;;;;;;;6.25;1.30;;;3.90;99.90;;;;;;5018335;28;20062;-58
2023/03/15 01:51:03;;;;;;;5.78;1.67;;;3.90;99.90;;;;;;5012633;28;20057;-56
2023/03/15 01:53:30;;;;;;;4.13;1.80;;;4.30;99.90;;;;;;5000631;28;20512;-50
2023/03/15 01:55:57;;;;;;;4.40;1.63;;;3.90;99.90;;;;;;5026867;28;20046;-50
2023/03/15 01:58:24;;;;;;;6.05;1.45;;;4.00;99.90;;;;;;4999745;28;20498;-58
2023/03/15 02:00:51;;;;;;;5.65;1.17;;;3.80;99.90;;;;;;5017687;28;20033;-52
2023/03/15 02:03:27;;;;;;;6.65;1.27;;;3.80;99.90;;;;;;5007001;28;20061;-53
2023/03/15 02:05:56;;;;;;;3.42;1.20;;;3.80;99.90;;;;;;4993669;28;20060;-54
2023/03/15 02:08:25;;;;;;;6.47;1.42;;;3.80;99.90;;;;;;5003737;28;20060;-54
2023/03/15 02:10:53;;;;;;;9.60;1.80;;;3.80;99.90;;;;;;4997741;28;20128;-56
2023/03/15 02:13:21;;;;;;;7.78;1.52;;;3.70;99.90;;;;;;5001864;28;20049;-55
2023/03/15 02:15:48;;;;;;;4.60;1.38;;;3.70;99.90;;;;;;5001466;28;20056;-55
2023/03/15 02:18:15;;;;;;;7.18;1.15;;;3.60;99.90;;;;;;5001580;28;20080;-56
2023/03/15 02:21:00;;;;;;;8.57;1.75;;;3.70;99.90;;;;;;5015094;28;20050;-56
2023/03/15 02:23:27;;;;;;;5.97;1.30;;;3.60;99.90;;;;;;5018295;28;20128;-56
2023/03/15 02:26:20;;;;;;;11.32;1.67;;;3.60;99.90;;;;;;4997316;28;20053;-61
2023/03/15 02:28:47;;;;;;;6.95;1.50;;;3.60;99.90;;;;;;5002484;28;20120;-57
2023/03/15 02:31:14;;;;;;;2.90;1.30;;;3.50;99.90;;;;;;5021143;28;20056;-57
2023/03/15 02:33:46;;;;;;;8.20;1.83;;;3.50;99.90;;;;;;5001183;28;20042;-55
2023/03/15 02:36:19;;;;;;;7.00;1.63;;;3.50;99.90;;;;;;5028929;28;20045;-55
2023/03/15 02:38:46;;;;;;;7.25;1.50;;;3.50;99.90;;;;;;5002500;28;20345;-55
2023/03/15 02:41:16;;;;;;;14.75;2.38;;;3.40;99.90;;;;;;4988286;28;20045;-58
2023/03/15 02:43:42;;;;;;;4.75;1.50;;;3.40;99.90;;;;;;5004346;28;20072;-56
2023/03/15 02:46:09;;;;;;;4.68;1.50;;;3.40;99.90;;;;;;5002687;28;20050;-55
2023/03/15 02:48:36;;;;;;;6.35;1.60;;;3.40;99.90;;;;;;5006669;28;20573;-57
2023/03/15 02:51:03;;;;;;;7.68;1.77;;;3.30;99.90;;;;;;5002212;28;20076;-53
2023/03/15 02:53:31;;;;;;;5.38;1.33;;;3.30;99.90;;;;;;5012451;28;20548;-56
2023/03/15 02:55:57;;;;;;;7.90;1.70;;;3.30;99.90;;;;;;5001890;28;20081;-56
2023/03/15 02:58:24;;;;;;;9.82;1.75;;;3.30;99.90;;;;;;4994392;28;20049;-55
2023/03/15 03:00:52;;;;;;;6.93;2.10;;;3.30;99.90;;;;;;5023265;28;20072;-57
2023/03/15 03:03:19;;;;;;;4.05;1.40;;;3.30;99.90;;;;;;5023518;28;20045;-56
2023/03/15 03:05:46;;;;;;;6.95;1.65;;;3.30;99.90;;;;;;5020910;28;20049;-56
2023/03/15 03:08:15;;;;;;;5.75;1.88;;;3.20;99.90;;;;;;5010948;28;20044;-57
2023/03/15 03:10:42;;;;;;;4.78;1.77;;;3.20;99.90;;;;;;5020600;28;20522;-57
2023/03/15 03:13:08;;;;;;;6.07;1.40;;;3.20;99.90;;;;;;5009505;28;20484;-56
2023/03/15 03:15:35;;;;;;;6.18;1.67;;;3.20;99.90;;;;;;5018527;28;20378;-55
2023/03/15 03:18:02;;;;;;;6.18;2.10;;;3.20;99.90;;;;;;5026392;28;20128;-56
2023/03/15 03:20:29;;;;;;;6.30;1.65;;;3.20;99.90;;;;;;4999892;28;20041;-55
2023/03/15 03:22:56;;;;;;;5.20;1.55;;;3.10;99.90;;;;;;5023906;28;20530;-55
2023/03/15 03:25:26;;;;;;;10.73;2.30;;;3.10;99.90;;;;;;5001179;28;20125;-53
2023/03/15 03:27:55;;;;;;;4.45;1.95;;;3.10;99.90;;;;;;5022301;28;20045;-56
2023/03/15 03:30:23;;;;;;;6.53;1.88;;;3.10;99.90;;;;;;5019869;28;20042;-56
2023/03/15 03:32:50;;;;;;;5.05;1.67;;;3.10;99.90;;;;;;5020105;28;20053;-54
2023/03/15 03:35:16;;;;;;;7.10;2.05;;;3.10;99.90;;;;;;5022828;28;20042;-51
2023/03/15 03:37:43;;;;;;;7.85;1.45;;;3.10;99.90;;;;;;5000225;28;20045;-51
2023/03/15 03:40:11;;;;;;;5.28;1.55;;;3.10;99.90;;;;;;5004612;28;20480;-54
2023/03/15 03:42:38;;;;;;;8.15;3.55;;;3.10;99.90;;;;;;5016849;28;20079;-52
2023/03/15 03:45:05;;;;;;;8.27;3.42;;;3.10;99.90;;;;;;5022697;28;20045;-56
2023/03/15 03:47:33;;;;;;;5.03;1.70;;;3.00;99.90;;;;;;5028163;28;20056;-56
2023/03/15 03:49:59;;;;;;;6.18;1.67;;;3.00;99.90;;;;;;5024479;28;20129;-56
2023/03/15 03:52:26;;;;;;;5.13;2.58;;;3.00;99.90;;;;;;5015278;28;20156;-55
2023/03/15 03:54:53;;;;;;;7.03;2.00;;;3.00;99.90;;;;;;5024481;28;20046;-56
2023/03/15 03:57:20;;;;;;;5.28;2.42;;;3.00;99.90;;;;;;5015335;28;20501;-55
2023/03/15 03:59:46;;;;;;;6.60;2.05;;;3.00;99.90;;;;;;5025900;28;20084;-56
2023/03/15 04:02:13;;;;;;;4.30;1.88;;;2.90;99.90;;;;;;5024279;28;20523;-57
2023/03/15 04:04:40;;;;;;;5.47;2.00;;;2.80;99.90;;;;;;5024661;28;20046;-57
2023/03/15 04:07:07;;;;;;;3.60;1.77;;;2.90;99.90;;;;;;5006674;28;20116;-51
2023/03/15 04:09:37;;;;;;;7.35;3.85;;;2.80;99.90;;;;;;5015453;28;20270;-55
2023/03/15 04:12:05;;;;;;;15.73;3.55;;;2.80;99.90;;;;;;5017183;28;20129;-53
2023/03/15 04:14:32;;;;;;;3.75;1.42;;;2.70;99.90;;;;;;5020783;28;20145;-56
2023/03/15 04:16:58;;;;;;;9.25;2.00;;;2.70;99.90;;;;;;5019009;28;20049;-55
2023/03/15 04:19:26;;;;;;;12.68;2.38;;;2.70;99.90;;;;;;5019644;28;20080;-56
2023/03/15 04:21:52;;;;;;;2.67;1.40;;;2.70;99.90;;;;;;5021449;28;20056;-54
2023/03/15 04:24:19;;;;;;;6.10;1.92;;;2.60;99.90;;;;;;5017649;28;20081;-56
2023/03/15 04:26:46;;;;;;;3.58;1.65;;;2.60;99.90;;;;;;5022853;28;20046;-56
2023/03/15 04:29:14;;;;;;;5.05;2.08;;;2.50;99.90;;;;;;5016523;28;20050;-55
2023/03/15 04:31:42;;;;;;;8.77;2.38;;;2.50;99.90;;;;;;5022451;28;20042;-54
2023/03/15 04:34:08;;;;;;;8.20;2.30;;;2.50;99.90;;;;;;5015989;28;20057;-54
2023/03/15 04:36:36;;;;;;;6.32;2.33;;;2.50;99.90;;;;;;5024496;28;20111;-57
2023/03/15 04:39:06;;;;;;;4.10;1.88;;;2.50;99.90;;;;;;5015056;28;20075;-55
2023/03/15 04:41:35;;;;;;;8.55;2.45;;;2.50;99.90;;;;;;5023353;28;20140;-56
2023/03/15 04:44:02;;;;;;;12.85;2.42;;;2.50;99.90;;;;;;5021679;28;20133;-56
2023/03/15 04:46:30;;;;;;;11.25;2.85;;;2.50;99.90;;;;;;5024530;28;20121;-56
2023/03/15 04:48:57;;;;;;;7.72;2.92;;;2.50;99.90;;;;;;5020123;28;20111;-56
2023/03/15 04:51:24;;;;;;;7.13;2.70;;;2.50;99.90;;;;;;5011380;28;20297;-54
2023/03/15 04:53:51;;;;;;;4.00;1.92;;;2.50;99.90;;;;;;5018897;28;20049;-55
2023/03/15 04:56:18;;;;;;;5.43;2.17;;;2.40;99.90;;;;;;5028831;28;20045;-55
2023/03/15 04:58:44;;;;;;;4.15;2.00;;;2.30;99.90;;;;;;5023500;28;20046;-55
2023/03/15 05:01:11;;;;;;;8.25;2.50;;;2.20;99.90;;;;;;5009804;28;20058;-55
2023/03/15 05:03:38;;;;;;;9.68;2.75;;;2.10;99.90;;;;;;5019877;28;20046;-56
2023/03/15 05:06:06;;;;;;;4.90;2.30;;;2.10;99.90;;;;;;5019805;28;20041;-56
2023/03/15 05:08:35;;;;;;;4.90;2.95;;;2.00;99.90;;;;;;5002372;28;20049;-55
2023/03/15 05:11:03;;;;;;;10.63;2.80;;;2.10;99.90;;;;;;5020856;28;20058;-55
2023/03/15 05:13:29;;;;;;;5.70;2.55;;;2.10;99.90;;;;;;5016193;28;20046;-55
2023/03/15 05:15:56;;;;;;;5.68;2.22;;;2.10;99.90;;;;;;5013752;28;20049;-55
2023/03/15 05:18:23;;;;;;;10.13;2.90;;;2.10;99.90;;;;;;5026211;28;20518;-55
2023/03/15 05:20:50;;;;;;;5.38;2.30;;;2.10;99.90;;;;;;5019909;28;20048;-56
2023/03/15 05:23:16;;;;;;;7.70;3.83;;;2.10;99.90;;;;;;5008915;28;20151;-54
2023/03/15 05:25:48;;;;;;;5.55;2.97;;;2.10;99.90;;;;;;5019125;28;20074;-56
2023/03/15 05:28:17;;;;;;;3.95;2.40;;;2.00;99.90;;;;;;5027272;28;20095;-55
2023/03/15 05:30:43;;;;;;;9.85;3.00;;;2.00;99.90;;;;;;5017397;28;20041;-56
2023/03/15 05:33:10;;;;;;;6.80;2.75;;;2.00;99.90;;;;;;5027281;28;20067;-58
2023/03/15 05:35:37;;;;;;;8.35;4.13;;;2.00;99.90;;;;;;5017694;28;20153;-56
2023/03/15 05:38:04;;;;;;;12.93;2.83;;;2.00;99.90;;;;;;5028560;28;20045;-56
2023/03/15 05:40:32;;;;;;;6.47;2.72;;;2.00;99.90;;;;;;5017374;28;20072;-55
2023/03/15 05:42:58;;;;;;;10.63;2.75;;;2.00;99.90;;;;;;5027656;28;20056;-55
2023/03/15 05:45:25;;;;;;;7.47;3.33;;;2.00;99.90;;;;;;5020327;28;20160;-56
2023/03/15 05:47:52;;;;;;;8.48;2.92;;;2.00;99.90;;;;;;4996058;28;20050;-57
2023/03/15 05:50:19;;;;;;;8.85;3.33;;;2.00;99.90;;;;;;5001665;28;20091;-57
2023/03/15 05:52:45;;;;;;;4.85;2.85;;;1.90;99.90;;;;;;5015566;28;20053;-57
2023/03/15 05:55:12;;;;;;;10.32;3.47;;;1.80;99.90;;;;;;5016282;28;20136;-55
2023/03/15 05:57:40;;;;;;;8.05;3.42;;;1.80;99.90;;;;;;5018225;28;20046;-58
2023/03/15 06:00:08;;;;;;;9.27;4.63;;;1.80;99.90;;;;;;5014121;28;20493;-56
2023/03/15 06:02:34;;;;;;;7.45;3.83;;;1.80;99.90;;;;;;5001666;28;20058;-55
2023/03/15 06:05:01;;;;;;;5.93;2.90;;;1.80;99.90;;;;;;5018245;28;20068;-56
2023/03/15 06:07:28;;;;;;;7.63;3.97;;;1.80;99.90;;;;;;5018629;28;20123;-54
2023/03/15 06:09:55;;;;;;;8.98;3.78;;;1.70;99.90;;;;;;5025429;28;20059;-53
2023/03/15 06:12:21;;;;;;;7.28;4.05;;;1.70;99.90;;;;;;5018325;28;20060;-55
2023/03/15 06:14:48;;;;;;;12.60;4.40;;;1.70;99.90;;;;;;5026486;28;20121;-56
2023/03/15 06:17:15;;;;;;;8.10;4.13;;;1.70;99.90;;;;;;5016952;28;20063;-57
2023/03/15 06:19:41;;;;;;;11.32;4.20;;;1.70;99.90;;;;;;5026453;28;20045;-57
2023/03/15 06:22:08;;;;;;;5.97;3.10;;;1.60;99.90;;;;;;5016714;28;20049;-56
2023/03/15 06:24:35;;;;;;;11.07;3.10;;;1.60;99.90;;;;;;5027881;28;20045;-56
2023/03/15 06:27:02;;;;;;;9.32;4.07;;;1.60;99.90;;;;;;5021795;28;20053;-55
2023/03/15 06:29:29;;;;;;;6.65;3.30;;;1.60;99.90;;;;;;5011347;28;20584;-56
2023/03/15 06:31:56;;;;;;;6.95;3.45;;;1.50;99.90;;;;;;5019152;28;20080;-57
2023/03/15 06:34:22;;;;;;;13.02;5.35;;;1.50;99.90;;;;;;5012550;28;20061;-56
2023/03/15 06:36:51;;;;;;;15.80;4.47;;;1.50;99.90;;;;;;5018319;28;20412;-57
2023/03/15 06:39:18;;;;;;;18.30;5.63;;;1.50;99.90;;;;;;5020561;28;20065;-58
2023/03/15 06:41:44;;;;;;;11.70;4.70;;;1.60;99.90;;;;;;5020557;28;20562;-56
2023/03/15 06:44:11;;;;;;;9.75;4.65;;;1.70;99.90;;;;;;5004939;28;20059;-56
2023/03/15 06:46:38;;;;;;;10.50;5.50;;;1.70;99.90;;;;;;5006920;28;20065;-56
2023/03/15 06:49:05;;;;;;;10.27;4.80;;;1.70;99.90;;;;;;5019635;28;20042;-56
2023/03/15 06:51:32;;;;;;;7.65;4.00;;;1.70;99.90;;;;;;5013101;28;20534;-57
2023/03/15 06:53:58;;;;;;;7.28;4.10;;;1.80;99.90;;;;;;5020093;28;20413;-57
2023/03/15 06:56:25;;;;;;;9.05;4.28;;;1.80;99.90;;;;;;5012627;28;20042;-57
2023/03/15 06:58:52;;;;;;;10.10;4.93;;;1.90;99.90;;;;;;5020187;28;20452;-54
2023/03/15 07:01:19;;;;;;;8.90;5.38;;;1.90;99.90;;;;;;5011227;28;20042;-58
2023/03/15 07:03:45;;;;;;;8.10;4.83;;;2.00;99.90;;;;;;4657826;28;10001207;-57
2023/03/15 07:06:12;;;;;;;10.23;5.70;;;2.10;99.90;;;;;;5022828;28;20045;-57
2023/03/15 07:08:39;;;;;;;13.48;5.32;;;2.10;99.90;;;;;;5018414;28;20120;-58
2023/03/15 07:11:06;;;;;;;9.88;5.38;;;2.20;99.90;;;;;;5023305;28;20049;-56
2023/03/15 07:13:33;;;;;;;10.68;6.13;;;2.30;99.90;;;;;;5009486;28;20050;-57
2023/03/15 07:16:00;;;;;;;12.82;5.90;;;2.30;99.90;;;;;;5006072;28;20104;-55
2023/03/15 07:18:26;;;;;;;12.35;5.20;;;2.30;99.90;;;;;;5015961;28;20056;-57
2023/03/15 07:21:01;;;;;;;11.73;5.40;;;2.40;99.90;;;;;;4992806;28;20049;-54
2023/03/15 07:23:29;;;;;;;10.80;5.75;;;2.40;99.90;;;;;;4997695;28;20053;-54
2023/03/15 07:25:56;;;;;;;9.15;4.90;;;2.50;99.90;;;;;;5020960;28;20073;-55
2023/03/15 07:28:23;;;;;;;11.63;5.25;;;2.50;99.90;;;;;;5016372;28;20046;-57
2023/03/15 07:30:55;;;;;;;12.13;4.80;;;2.60;99.90;;;;;;4993534;28;20052;-57
2023/03/15 07:33:23;;;;;;;8.60;5.32;;;2.70;99.90;;;;;;5010894;28;20057;-57
2023/03/15 07:35:50;;;;;;;10.32;5.47;;;2.70;99.90;;;;;;5015464;28;20073;-57
2023/03/15 07:38:18;;;;;;;11.80;6.22;;;2.70;99.90;;;;;;5017408;28;20049;-54
2023/03/15 07:40:44;;;;;;;9.95;5.90;;;2.70;99.90;;;;;;5013602;28;20068;-55
2023/03/15 07:43:11;;;;;;;12.13;6.15;;;2.70;99.90;;;;;;5019858;28;20058;-55
2023/03/15 07:45:38;;;;;;;10.65;5.07;;;2.90;99.90;;;;;;5012585;28;20072;-57
2023/03/15 07:48:05;;;;;;;9.73;6.00;;;2.90;99.90;;;;;;5020975;28;20046;-56
2023/03/15 07:50:32;;;;;;;10.45;4.90;;;3.00;99.90;;;;;;5016843;28;20052;-55
2023/03/15 07:52:58;;;;;;;10.82;5.95;;;3.10;99.90;;;;;;4989011;28;20049;-57
2023/03/15 07:55:25;;;;;;;14.77;6.32;;;3.20;99.90;;;;;;5010008;28;20050;-55
2023/03/15 07:57:52;;;;;;;11.40;6.18;;;3.20;99.90;;;;;;5022426;28;20064;-55
2023/03/15 08:00:21;;;;;;;14.63;6.22;;;3.30;99.90;;;;;;5016621;28;20159;-56
2023/03/15 08:02:51;;;;;;;15.93;6.85;;;3.40;99.90;;;;;;5005674;28;20042;-57
2023/03/15 08:05:18;;;;;;;13.23;5.97;;;3.60;99.90;;;;;;5000982;28;20053;-55
2023/03/15 08:07:45;;;;;;;12.52;5.82;;;3.70;99.90;;;;;;5006314;28;20049;-56
2023/03/15 08:10:12;;;;;;;10.00;5.18;;;3.80;99.90;;;;;;4996945;28;20068;-58
2023/03/15 08:12:41;;;;;;;10.57;5.93;;;3.90;99.90;;;;;;4990305;28;20060;-54
2023/03/15 08:15:14;;;;;;;15.88;6.43;;;4.10;99.90;;;;;;5012346;28;20092;-57
2023/03/15 08:17:41;;;;;;;14.93;5.82;;;4.30;99.90;;;;;;5009361;28;20531;-58
2023/03/15 08:20:15;;;;;;;9.50;5.25;;;4.40;99.90;;;;;;4994818;28;20092;-57
2023/03/15 08:22:44;;;;;;;7.90;5.47;;;4.40;99.90;;;;;;4993916;28;20050;-59
2023/03/15 08:25:12;;;;;;;7.68;4.45;;;4.60;99.90;;;;;;4993342;28;20045;-64
2023/03/15 08:27:40;;;;;;;10.50;4.70;;;4.60;99.90;;;;;;5015175;28;20132;-60
2023/03/15 08:30:11;;;;;;;12.55;4.38;;;4.70;99.90;;;;;;5016991;28;20391;-60
2023/03/15 08:32:39;;;;;;;22.90;5.07;;;4.80;99.90;;;;;;5018521;28;20088;-55
2023/03/15 08:35:06;;;;;;;10.43;3.75;;;4.80;99.90;;;;;;5022782;28;20054;-55
2023/03/15 08:37:33;;;;;;;14.68;4.13;;;4.80;99.90;;;;;;5017069;28;20045;-57
2023/03/15 08:40:04;;;;;;;8.68;3.65;;;4.90;99.90;;;;;;5023095;28;20076;-53
2023/03/15 08:42:30;;;;;;;6.90;2.80;;;5.00;99.90;;;;;;5017255;28;20103;-55
2023/03/15 08:44:58;;;;;;;10.10;3.58;;;5.00;99.90;;;;;;5006099;28;20057;-59
2023/03/15 08:47:25;;;;;;;5.80;3.22;;;5.10;99.90;;;;;;5016133;28;20501;-57
2023/03/15 08:49:52;;;;;;;7.15;3.75;;;5.10;99.90;;;;;;5007265;28;20050;-58
2023/03/15 08:52:20;;;;;;;6.22;3.47;;;5.20;99.90;;;;;;5017318;28;20081;-57
2023/03/15 08:54:47;;;;;;;6.20;3.15;;;5.20;99.90;;;;;;5027623;28;20472;-57
2023/03/15 08:57:14;;;;;;;10.30;2.60;;;5.20;99.90;;;;;;5024100;28;20133;-54
2023/03/15 08:59:41;;;;;;;8.60;3.00;;;5.30;99.90;;;;;;5012207;28;20058;-54
2023/03/15 09:02:10;;;;;;;8.15;2.70;;;5.40;99.90;;;;;;5021948;28;20419;-64
2023/03/15 09:04:37;;;;;;;10.93;3.00;;;5.50;99.90;;;;;;5012478;28;20476;-56
2023/03/15 09:07:04;;;;;;;5.47;2.78;;;5.60;99.90;;;;;;5020748;28;20058;-57
2023/03/15 09:09:32;;;;;;;8.25;3.00;;;5.60;99.90;;;;;;4996652;28;20052;-55
2023/03/15 09:11:59;;;;;;;13.45;2.30;;;5.80;99.90;;;;;;5019426;28;20767;-57
2023/03/15 09:14:27;;;;;;;6.90;2.65;;;5.90;99.90;;;;;;5016253;28;20133;-59
2023/03/15 09:16:53;;;;;;;12.40;2.60;;;6.20;99.90;;;;;;5019583;28;20053;-56
2023/03/15 09:19:20;;;;;;;5.75;2.05;;;6.60;99.90;;;;;;5022060;28;20045;-55
2023/03/15 09:21:47;;;;;;;4.22;2.05;;;6.90;99.90;;;;;;5024877;28;20045;-53
2023/03/15 09:24:14;;;;;;;5.60;2.08;;;7.30;99.90;;;;;;5019721;28;20041;-55
2023/03/15 09:26:41;;;;;;;4.75;1.48;;;7.50;99.90;;;;;;5024760;28;20052;-54
2023/03/15 09:29:08;;;;;;;10.60;2.00;;;7.60;99.90;;;;;;5001429;28;20155;-56
2023/03/15 09:31:35;;;;;;;5.85;2.53;;;7.90;99.90;;;;;;5005505;28;20061;-58
2023/03/15 09:34:02;;;;;;;3.50;2.10;;;8.10;99.90;;;;;;5020342;28;20067;-56
2023/03/15 09:36:29;;;;;;;7.63;1.73;;;8.30;99.90;;;;;;5012357;28;20145;-56
2023/03/15 09:38:56;;;;;;;4.88;1.38;;;8.50;99.90;;;;;;5021033;28;20204;-56
2023/03/15 09:41:25;;;;;;;13.57;1.77;;;8.50;99.90;;;;;;5012267;28;20487;-57
2023/03/15 09:43:59;;;;;;;7.55;1.73;;;8.30;99.90;;;;;;4661000;28;10000063;-53
2023/03/15 09:47:02;;;;;;;;;;;8.10;99.90;;;;;;4991949;28;20052;-57
2023/03/15 09:49:52;;;;;;;6.60;1.40;;;8.00;99.90;;;;;;4965366;28;20029;-53
2023/03/15 09:52:50;;;;;;;8.55;1.80;;;7.80;99.90;;;;;;4993814;28;20049;-52
2023/03/15 09:55:20;;;;;;;10.63;1.70;;;7.80;99.90;;;;;;5013246;28;20049;-55
2023/03/15 09:57:57;;;;;;;8.23;2.20;;;7.80;99.90;;;;;;5004988;28;20042;-52
2023/03/15 10:00:44;;;;;;;18.90;2.08;;;7.80;99.90;;;;;;4999319;28;20405;-55
2023/03/15 10:03:20;;;;;;;7.80;1.70;;;7.80;99.90;;;;;;4984158;28;20544;-56
2023/03/15 10:05:51;;;;;;;8.02;2.00;;;7.90;99.90;;;;;;5015553;28;20136;-57
2023/03/15 10:08:18;;;;;;;8.95;2.22;;;7.90;99.90;;;;;;5010454;28;20069;-54
2023/03/15 10:11:01;;;;;;;3.60;1.50;;;7.90;99.90;;;;;;5017232;28;20046;-55
2023/03/15 10:13:37;;;;;;;14.52;2.22;;;7.80;99.90;;;;;;4992577;28;20053;-63
2023/03/15 10:16:27;;;;;;;5.00;1.65;;;7.70;99.90;;;;;;4998571;28;20062;-57
2023/03/15 10:19:03;;;;;;;3.40;1.52;;;7.70;99.90;;;;;;5011492;28;20046;-55
2023/03/15 10:21:44;;;;;;;2.20;1.25;;;7.80;99.90;;;;;;5013349;28;20049;-56
2023/03/15 10:24:43;;;;;;;9.25;1.92;;;7.70;99.90;;;;;;4996113;28;20045;-60
2023/03/15 10:27:21;;;;;;;9.68;1.38;;;7.80;99.90;;;;;;5013425;28;20476;-54
2023/03/15 10:29:49;;;;;;;11.02;2.53;;;7.80;99.90;;;;;;5005836;28;20088;-56
2023/03/15 10:32:17;;;;;;;2.13;1.02;;;7.90;99.90;;;;;;4997147;28;20076;-56
2023/03/15 10:34:51;;;;;;;1.98;0.80;;;8.00;99.90;;;;;;5014753;28;20072;-56
2023/03/15 10:37:18;;;;;;;6.85;1.80;;;8.10;99.90;;;;;;4997458;28;20133;-55
2023/03/15 10:39:46;;;;;;;2.78;0.80;;;8.10;99.90;;;;;;5011704;28;20080;-53
2023/03/15 10:42:30;;;;;;;7.78;1.30;;;8.10;99.90;;;;;;5000439;28;20049;-56
2023/03/15 10:44:57;;;;;;;2.45;0.93;;;8.20;99.90;;;;;;4985216;28;20088;-56
2023/03/15 10:47:25;;;;;;;4.72;1.65;;;8.20;99.90;;;;;;5014719;28;20049;-55
2023/03/15 10:49:58;;;;;;;8.18;1.48;;;8.20;99.90;;;;;;4996542;28;20161;-55
2023/03/15 10:52:34;;;;;;;4.00;1.77;;;8.20;99.90;;;;;;5016190;28;20053;-58
2023/03/15 10:55:16;;;;;;;12.48;2.63;;;8.20;99.90;;;;;;5014800;28;20050;-56
2023/03/15 10:57:54;;;;;;;15.13;2.70;;;8.30;99.90;;;;;;5000229;28;20103;-53
2023/03/15 11:00:24;;;;;;;5.55;1.88;;;8.40;99.90;;;;;;5014230;28;20058;-55
2023/03/15 11:02:59;;;;;;;12.40;1.83;;;8.40;99.90;;;;;;5016623;28;20383;-56
2023/03/15 11:05:39;;;;;;;4.60;2.08;;;8.40;99.90;;;;;;5014014;28;20430;-56
2023/03/15 11:08:11;;;;;;;8.90;2.40;;;8.40;99.90;;;;;;5016467;28;21042;-56
2023/03/15 11:10:37;;;;;;;6.10;2.28;;;8.40;99.90;;;;;;4997564;28;20124;-55
2023/03/15 11:13:19;;;;;;;5.38;1.60;;;8.40;99.90;;;;;;4995271;28;20053;-54
2023/03/15 11:16:08;;;;;;;5.55;1.60;;;8.40;99.90;;;;;;5010697;28;20058;-57
2023/03/15 11:18:43;;;;;;;10.98;1.50;;;8.50;99.90;;;;;;5002253;28;20539;-56
2023/03/15 11:21:13;;;;;;;3.28;0.93;;;8.60;99.90;;;;;;5012727;28;20160;-52
2023/03/15 11:23:43;;;;;;;4.05;1.35;;;8.50;99.90;;;;;;4998019;28;20037;-56
2023/03/15 11:26:21;;;;;;;4.78;1.27;;;8.60;99.90;;;;;;5000110;28;20444;-55
2023/03/15 11:29:25;;;;;;;4.10;1.00;;;8.70;99.90;;;;;;5014573;28;20056;-55
2023/03/15 11:31:52;;;;;;;4.30;1.90;;;8.70;99.90;;;;;;4997721;28;20134;-56
2023/03/15 11:34:25;;;;;;;7.07;1.15;;;8.80;99.90;;;;;;4996236;28;20501;-56
2023/03/15 11:36:55;;;;;;;6.35;1.30;;;8.80;99.90;;;;;;4988030;28;20620;-53
2023/03/15 11:39:43;;;;;;;6.10;1.30;;;8.90;99.90;;;;;;4999548;28;20049;-55
2023/03/15 11:42:20;;;;;;;1.95;0.70;;;8.90;99.90;;;;;;4990130;28;20124;-55
2023/03/15 11:44:47;;;;;;;4.10;0.80;;;8.80;99.90;;;;;;5001641;28;20492;-56
2023/03/15 11:47:42;;;;;;;4.78;0.95;;;8.80;99.90;;;;;;4993145;28;20045;-55
2023/03/15 11:50:12;;;;;;;2.17;0.80;;;8.80;99.90;;;;;;5023263;28;20124;-56
2023/03/15 11:52:40;;;;;;;4.25;1.05;;;8.90;99.90;;;;;;4999816;28;20073;-57
2023/03/15 11:55:32;;;;;;;6.80;1.38;;;8.90;99.90;;;;;;5009967;28;20717;-56
2023/03/15 11:58:31;;;;;;;4.00;0.95;;;9.00;99.90;;;;;;5018096;28;20049;-55
2023/03/15 12:01:03;;;;;;;2.78;1.02;;;9.00;99.90;;;;;;5008289;28;20548;-53
2023/03/15 12:03:48;;;;;;;5.80;1.30;;;9.10;99.90;;;;;;5018426;28;20252;-51
2023/03/15 12:06:18;;;;;;;3.47;1.25;;;9.10;99.90;;;;;;5023337;28;20375;-53
2023/03/15 12:08:50;;;;;;;7.50;1.27;;;9.10;99.90;;;;;;5020024;28;20049;-52
2023/03/15 12:11:23;;;;;;;7.00;1.10;;;9.10;99.90;;;;;;5006111;28;20522;-50
2023/03/15 12:14:21;;;;;;;11.47;1.77;;;9.20;99.90;;;;;;5019783;28;20060;-53
2023/03/15 12:16:48;;;;;;;5.32;1.00;;;9.10;99.90;;;;;;4994117;28;20045;-54
2023/03/15 12:19:17;;;;;;;149.95;17.95;;;9.20;99.90;;;;;;4996173;28;20053;-49
2023/03/15 12:21:55;;;;;;;19.35;2.92;;;9.30;99.90;;;;;;5005890;28;20145;-55
2023/03/15 12:24:25;;;;;;;22.48;2.28;;;9.40;99.90;;;;;;4996630;28;20069;-53
2023/03/15 12:27:15;;;;;;;18.52;4.00;;;9.40;99.90;;;;;;5005808;28;20046;-53
2023/03/15 12:29:46;;;;;;;1.75;0.85;;;9.30;99.90;;;;;;5023023;28;20061;-54
2023/03/15 12:32:13;;;;;;;25.65;3.22;;;9.40;99.90;;;;;;5000089;28;20057;-54
2023/03/15 12:34:53;;;;;;;2.28;0.80;;;9.40;99.90;;;;;;5017077;28;20514;-53
2023/03/15 12:37:26;;;;;;;4.03;1.52;;;9.40;99.90;;;;;;5002791;28;20060;-54
2023/03/15 12:40:00;;;;;;;15.32;1.83;;;9.50;99.90;;;;;;4999305;28;20145;-54
2023/03/15 12:42:30;;;;;;;15.82;2.15;;;9.50;99.90;;;;;;5019317;28;20042;-57
2023/03/15 12:45:15;;;;;;;5.25;0.98;;;9.60;99.90;;;;;;5017650;28;20046;-54
2023/03/15 12:47:50;;;;;;;3.50;0.90;;;9.50;99.90;;;;;;5017264;28;20050;-55
2023/03/15 12:50:37;;;;;;;4.88;1.15;;;9.40;99.90;;;;;;5014580;28;20125;-56
2023/03/15 12:53:11;;;;;;;4.10;0.80;;;9.50;99.90;;;;;;5019250;28;20092;-56
2023/03/15 12:55:38;;;;;;;3.30;0.80;;;9.50;99.90;;;;;;5000567;28;20117;-57
2023/03/15 12:58:06;;;;;;;4.30;1.02;;;9.50;99.90;;;;;;4999838;28;20041;-56
2023/03/15 13:00:32;;;;;;;2.17;0.88;;;9.60;99.90;;;;;;5001836;28;20053;-56
2023/03/15 13:03:22;;;;;;;2.53;1.00;;;9.60;99.90;;;;;;4991744;28;20130;-50
2023/03/15 13:06:26;;;;;;;4.10;0.77;;;9.60;99.90;;;;;;5019060;28;20057;-55
2023/03/15 13:08:53;;;;;;;;;;;9.50;99.90;;;;;;4662313;28;9999908;-55
2023/03/15 13:11:29;;;;;;;3.53;1.08;;;9.50;99.90;;;;;;5014673;28;19921;-53